Hayward, Wisconsin
Current Conditions -  °F | °C
As of 2:53 AM on Thursday 23 Oct 2014 (Local Time) from KHYR Reporting Station
Broken Clouds Broken Clouds  
Wind Chill: 44°   Ceiling: 10000
Heat Index: 48°   Visibility: 10mi
Dew Point: 41°   Wind: 9mph
Humidity: 77%   Direction: 170°S
Pressure: 30.04"   Gusts: NA
Location:  46.01°N, 91.48°W
Report Text: KHYR 230753Z AUTO 17008KT 10SM FEW041 BKN100 09/05 A3004 RMK AO2 SLP179 T00890050
Loading
Personal Weather Stations






























Interactive Weather Map New forecast layout! Learn more

10-Day Weather Forecast

Advertisements
Track Severe Weather on mobile